sensor_id;sensor_type;location;lat;lon;timestamp;temperature;humidity
29413;DHT22;16389;50.126;8.450;2023-04-01T00:01:19;10.20;99.90
29413;DHT22;16389;50.126;8.450;2023-04-01T00:03:45;10.20;99.90
29413;DHT22;16389;50.126;8.450;2023-04-01T00:06:16;10.20;99.90
29413;DHT22;16389;50.126;8.450;2023-04-01T00:08:43;10.20;99.90
29413;DHT22;16389;50.126;8.450;2023-04-01T00:11:09;10.20;99.90
29413;DHT22;16389;50.126;8.450;2023-04-01T00:13:36;10.20;99.90
29413;DHT22;16389;50.126;8.450;2023-04-01T00:16:01;10.20;99.90
29413;DHT22;16389;50.126;8.450;2023-04-01T00:18:28;10.20;99.90
29413;DHT22;16389;50.126;8.450;2023-04-01T00:20:54;10.20;99.90
29413;DHT22;16389;50.126;8.450;2023-04-01T00:23:20;10.20;99.90
29413;DHT22;16389;50.126;8.450;2023-04-01T00:25:46;10.20;99.90
29413;DHT22;16389;50.126;8.450;2023-04-01T00:28:15;10.10;99.90
29413;DHT22;16389;50.126;8.450;2023-04-01T00:30:41;10.20;99.90
29413;DHT22;16389;50.126;8.450;2023-04-01T00:33:06;10.20;99.90
29413;DHT22;16389;50.126;8.450;2023-04-01T00:35:32;10.10;99.90
29413;DHT22;16389;50.126;8.450;2023-04-01T00:37:58;10.10;99.90
29413;DHT22;16389;50.126;8.450;2023-04-01T00:40:34;10.10;99.90
29413;DHT22;16389;50.126;8.450;2023-04-01T00:43:00;10.10;99.90
29413;DHT22;16389;50.126;8.450;2023-04-01T00:48:02;10.20;99.90
29413;DHT22;16389;50.126;8.450;2023-04-01T00:50:30;10.20;99.90
29413;DHT22;16389;50.126;8.450;2023-04-01T00:52:58;10.10;99.90
29413;DHT22;16389;50.126;8.450;2023-04-01T00:55:25;10.20;99.90
29413;DHT22;16389;50.126;8.450;2023-04-01T00:57:53;10.10;99.90
29413;DHT22;16389;50.126;8.450;2023-04-01T01:00:21;10.10;99.90
29413;DHT22;16389;50.126;8.450;2023-04-01T01:02:49;10.10;99.90
29413;DHT22;16389;50.126;8.450;2023-04-01T01:05:16;10.10;99.90
29413;DHT22;16389;50.126;8.450;2023-04-01T01:15:47;10.10;99.90
29413;DHT22;16389;50.126;8.450;2023-04-01T01:18:35;10.00;99.90
29413;DHT22;16389;50.126;8.450;2023-04-01T01:27:08;10.00;99.90
29413;DHT22;16389;50.126;8.450;2023-04-01T01:30:12;10.00;99.90
29413;DHT22;16389;50.126;8.450;2023-04-01T01:35:53;10.10;99.90
29413;DHT22;16389;50.126;8.450;2023-04-01T01:38:23;10.00;99.90
29413;DHT22;16389;50.126;8.450;2023-04-01T01:40:49;10.00;99.90
29413;DHT22;16389;50.126;8.450;2023-04-01T01:43:22;10.00;99.90
29413;DHT22;16389;50.126;8.450;2023-04-01T01:45:55;10.00;99.90
29413;DHT22;16389;50.126;8.450;2023-04-01T01:48:23;10.00;99.90
29413;DHT22;16389;50.126;8.450;2023-04-01T01:50:50;10.00;99.90
29413;DHT22;16389;50.126;8.450;2023-04-01T01:53:16;10.00;99.90
29413;DHT22;16389;50.126;8.450;2023-04-01T01:55:46;10.00;99.90
29413;DHT22;16389;50.126;8.450;2023-04-01T02:00:37;10.00;99.90
29413;DHT22;16389;50.126;8.450;2023-04-01T02:03:04;10.00;99.90
29413;DHT22;16389;50.126;8.450;2023-04-01T02:05:31;10.00;99.90
29413;DHT22;16389;50.126;8.450;2023-04-01T02:10:38;10.00;99.90
29413;DHT22;16389;50.126;8.450;2023-04-01T02:13:11;10.00;99.90
29413;DHT22;16389;50.126;8.450;2023-04-01T02:15:42;10.00;99.90
29413;DHT22;16389;50.126;8.450;2023-04-01T02:18:10;9.90;99.90
29413;DHT22;16389;50.126;8.450;2023-04-01T02:20:39;9.90;99.90
29413;DHT22;16389;50.126;8.450;2023-04-01T02:23:06;9.90;99.90
29413;DHT22;16389;50.126;8.450;2023-04-01T02:25:35;9.90;99.90
29413;DHT22;16389;50.126;8.450;2023-04-01T02:28:04;10.00;99.90
29413;DHT22;16389;50.126;8.450;2023-04-01T02:30:33;9.90;99.90
29413;DHT22;16389;50.126;8.450;2023-04-01T02:32:59;9.90;99.90
29413;DHT22;16389;50.126;8.450;2023-04-01T02:35:26;9.90;99.90
29413;DHT22;16389;50.126;8.450;2023-04-01T02:37:53;9.90;99.90
29413;DHT22;16389;50.126;8.450;2023-04-01T02:40:19;9.80;99.90
29413;DHT22;16389;50.126;8.450;2023-04-01T02:42:45;9.80;99.90
29413;DHT22;16389;50.126;8.450;2023-04-01T02:45:12;9.80;99.90
29413;DHT22;16389;50.126;8.450;2023-04-01T02:47:38;9.80;99.90
29413;DHT22;16389;50.126;8.450;2023-04-01T02:50:04;9.80;99.90
29413;DHT22;16389;50.126;8.450;2023-04-01T02:52:30;9.80;99.90
29413;DHT22;16389;50.126;8.450;2023-04-01T02:54:56;9.80;99.90
29413;DHT22;16389;50.126;8.450;2023-04-01T02:57:23;9.80;99.90
29413;DHT22;16389;50.126;8.450;2023-04-01T02:59:48;9.80;99.90
29413;DHT22;16389;50.126;8.450;2023-04-01T03:02:14;9.80;99.90
29413;DHT22;16389;50.126;8.450;2023-04-01T03:04:40;9.80;99.90
29413;DHT22;16389;50.126;8.450;2023-04-01T03:07:06;9.80;99.90
29413;DHT22;16389;50.126;8.450;2023-04-01T03:09:32;9.80;99.90
29413;DHT22;16389;50.126;8.450;2023-04-01T03:11:58;9.80;99.90
29413;DHT22;16389;50.126;8.450;2023-04-01T03:14:23;9.80;99.90
29413;DHT22;16389;50.126;8.450;2023-04-01T03:16:49;9.70;99.90
29413;DHT22;16389;50.126;8.450;2023-04-01T03:19:14;9.70;99.90
29413;DHT22;16389;50.126;8.450;2023-04-01T03:21:40;9.70;99.90
29413;DHT22;16389;50.126;8.450;2023-04-01T03:24:06;9.70;99.90
29413;DHT22;16389;50.126;8.450;2023-04-01T03:26:33;9.70;99.90
29413;DHT22;16389;50.126;8.450;2023-04-01T03:28:58;9.70;99.90
29413;DHT22;16389;50.126;8.450;2023-04-01T03:31:24;9.70;99.90
29413;DHT22;16389;50.126;8.450;2023-04-01T03:33:50;9.70;99.90
29413;DHT22;16389;50.126;8.450;2023-04-01T03:36:16;9.70;99.90
29413;DHT22;16389;50.126;8.450;2023-04-01T03:38:42;9.60;99.90
29413;DHT22;16389;50.126;8.450;2023-04-01T03:41:12;9.60;99.90
29413;DHT22;16389;50.126;8.450;2023-04-01T03:43:38;9.60;99.90
29413;DHT22;16389;50.126;8.450;2023-04-01T03:46:04;9.60;99.90
29413;DHT22;16389;50.126;8.450;2023-04-01T03:48:30;9.60;99.90
29413;DHT22;16389;50.126;8.450;2023-04-01T03:50:56;9.60;99.90
29413;DHT22;16389;50.126;8.450;2023-04-01T03:53:21;9.60;99.90
29413;DHT22;16389;50.126;8.450;2023-04-01T03:55:47;9.70;99.90
29413;DHT22;16389;50.126;8.450;2023-04-01T03:58:13;9.60;99.90
29413;DHT22;16389;50.126;8.450;2023-04-01T04:00:38;9.60;99.90
29413;DHT22;16389;50.126;8.450;2023-04-01T04:03:05;9.60;99.90
29413;DHT22;16389;50.126;8.450;2023-04-01T04:05:31;9.60;99.90
29413;DHT22;16389;50.126;8.450;2023-04-01T04:07:57;9.70;99.90
29413;DHT22;16389;50.126;8.450;2023-04-01T04:10:22;9.60;99.90
29413;DHT22;16389;50.126;8.450;2023-04-01T04:12:50;9.70;99.90
29413;DHT22;16389;50.126;8.450;2023-04-01T04:15:16;9.70;99.90
29413;DHT22;16389;50.126;8.450;2023-04-01T04:17:42;9.60;99.90
29413;DHT22;16389;50.126;8.450;2023-04-01T04:20:08;9.70;99.90
29413;DHT22;16389;50.126;8.450;2023-04-01T04:22:34;9.60;99.90
29413;DHT22;16389;50.126;8.450;2023-04-01T04:25:00;9.60;99.90
29413;DHT22;16389;50.126;8.450;2023-04-01T04:27:25;9.70;99.90
29413;DHT22;16389;50.126;8.450;2023-04-01T04:29:51;9.60;99.90
29413;DHT22;16389;50.126;8.450;2023-04-01T04:32:17;9.70;99.90
29413;DHT22;16389;50.126;8.450;2023-04-01T04:34:42;9.70;99.90
29413;DHT22;16389;50.126;8.450;2023-04-01T04:37:08;9.70;99.90
29413;DHT22;16389;50.126;8.450;2023-04-01T04:39:33;9.70;99.90
29413;DHT22;16389;50.126;8.450;2023-04-01T04:41:59;9.70;99.90
29413;DHT22;16389;50.126;8.450;2023-04-01T04:44:25;9.70;99.90
29413;DHT22;16389;50.126;8.450;2023-04-01T04:46:50;9.70;99.90
29413;DHT22;16389;50.126;8.450;2023-04-01T04:49:16;9.70;99.90
29413;DHT22;16389;50.126;8.450;2023-04-01T04:51:42;9.70;99.90
29413;DHT22;16389;50.126;8.450;2023-04-01T04:54:08;9.70;99.90
29413;DHT22;16389;50.126;8.450;2023-04-01T04:56:34;9.60;99.90
29413;DHT22;16389;50.126;8.450;2023-04-01T04:59:01;9.60;99.90
29413;DHT22;16389;50.126;8.450;2023-04-01T05:01:27;9.70;99.90
29413;DHT22;16389;50.126;8.450;2023-04-01T05:03:52;9.60;99.90
29413;DHT22;16389;50.126;8.450;2023-04-01T05:06:19;9.60;99.90
29413;DHT22;16389;50.126;8.450;2023-04-01T05:08:45;9.60;99.90
29413;DHT22;16389;50.126;8.450;2023-04-01T05:11:18;9.50;99.90
29413;DHT22;16389;50.126;8.450;2023-04-01T05:13:44;9.50;99.90
29413;DHT22;16389;50.126;8.450;2023-04-01T05:16:12;9.30;99.90
29413;DHT22;16389;50.126;8.450;2023-04-01T05:18:38;9.30;99.90
29413;DHT22;16389;50.126;8.450;2023-04-01T05:21:04;9.20;99.90
29413;DHT22;16389;50.126;8.450;2023-04-01T05:23:31;9.10;99.90
29413;DHT22;16389;50.126;8.450;2023-04-01T05:25:56;9.10;99.90
29413;DHT22;16389;50.126;8.450;2023-04-01T05:28:22;9.00;99.90
29413;DHT22;16389;50.126;8.450;2023-04-01T05:30:48;9.00;99.90
29413;DHT22;16389;50.126;8.450;2023-04-01T05:33:13;8.90;99.90
29413;DHT22;16389;50.126;8.450;2023-04-01T05:35:40;8.90;99.90
29413;DHT22;16389;50.126;8.450;2023-04-01T05:38:06;8.90;99.90
29413;DHT22;16389;50.126;8.450;2023-04-01T05:40:32;8.80;99.90
29413;DHT22;16389;50.126;8.450;2023-04-01T05:42:59;8.80;99.90
29413;DHT22;16389;50.126;8.450;2023-04-01T05:45:26;8.90;99.90
29413;DHT22;16389;50.126;8.450;2023-04-01T05:47:51;8.80;99.90
29413;DHT22;16389;50.126;8.450;2023-04-01T05:50:17;8.80;99.90
29413;DHT22;16389;50.126;8.450;2023-04-01T05:52:43;8.80;99.90
29413;DHT22;16389;50.126;8.450;2023-04-01T05:55:10;8.80;99.90
29413;DHT22;16389;50.126;8.450;2023-04-01T05:57:35;8.70;99.90
29413;DHT22;16389;50.126;8.450;2023-04-01T06:00:02;8.70;99.90
29413;DHT22;16389;50.126;8.450;2023-04-01T06:02:27;8.80;99.90
29413;DHT22;16389;50.126;8.450;2023-04-01T06:07:36;8.70;99.90
29413;DHT22;16389;50.126;8.450;2023-04-01T06:10:05;8.70;99.90
29413;DHT22;16389;50.126;8.450;2023-04-01T06:12:59;8.70;99.90
29413;DHT22;16389;50.126;8.450;2023-04-01T06:15:55;8.70;99.90
29413;DHT22;16389;50.126;8.450;2023-04-01T06:21:33;8.70;99.90
29413;DHT22;16389;50.126;8.450;2023-04-01T06:27:56;8.80;99.90
29413;DHT22;16389;50.126;8.450;2023-04-01T06:31:20;8.80;99.90
29413;DHT22;16389;50.126;8.450;2023-04-01T06:36:41;8.90;99.90
29413;DHT22;16389;50.126;8.450;2023-04-01T06:39:19;8.80;99.90
29413;DHT22;16389;50.126;8.450;2023-04-01T06:42:04;8.80;99.90
29413;DHT22;16389;50.126;8.450;2023-04-01T06:56:14;8.90;99.90
29413;DHT22;16389;50.126;8.450;2023-04-01T06:59:17;8.90;99.90
29413;DHT22;16389;50.126;8.450;2023-04-01T07:01:50;8.90;99.90
29413;DHT22;16389;50.126;8.450;2023-04-01T07:04:25;8.90;99.90
29413;DHT22;16389;50.126;8.450;2023-04-01T07:09:25;8.90;99.90
29413;DHT22;16389;50.126;8.450;2023-04-01T07:11:53;8.90;99.90
29413;DHT22;16389;50.126;8.450;2023-04-01T07:14:36;9.00;99.90
29413;DHT22;16389;50.126;8.450;2023-04-01T07:17:14;9.00;99.90
29413;DHT22;16389;50.126;8.450;2023-04-01T07:19:50;9.10;99.90
29413;DHT22;16389;50.126;8.450;2023-04-01T07:25:15;9.40;99.90
29413;DHT22;16389;50.126;8.450;2023-04-01T07:27:45;9.50;99.90
29413;DHT22;16389;50.126;8.450;2023-04-01T07:30:19;9.60;99.90
29413;DHT22;16389;50.126;8.450;2023-04-01T07:33:04;9.50;99.90
29413;DHT22;16389;50.126;8.450;2023-04-01T07:35:59;9.50;99.90
29413;DHT22;16389;50.126;8.450;2023-04-01T07:38:51;9.70;99.90
29413;DHT22;16389;50.126;8.450;2023-04-01T07:49:53;10.10;99.90
29413;DHT22;16389;50.126;8.450;2023-04-01T07:55:25;10.40;99.90
29413;DHT22;16389;50.126;8.450;2023-04-01T07:58:16;10.50;99.90
29413;DHT22;16389;50.126;8.450;2023-04-01T08:00:56;10.50;99.90
29413;DHT22;16389;50.126;8.450;2023-04-01T08:06:39;10.60;99.90
29413;DHT22;16389;50.126;8.450;2023-04-01T08:09:10;10.60;99.90
29413;DHT22;16389;50.126;8.450;2023-04-01T08:14:48;10.40;99.90
29413;DHT22;16389;50.126;8.450;2023-04-01T08:20:14;10.40;99.90
29413;DHT22;16389;50.126;8.450;2023-04-01T08:22:51;10.40;99.90
29413;DHT22;16389;50.126;8.450;2023-04-01T08:25:25;10.50;99.90
29413;DHT22;16389;50.126;8.450;2023-04-01T08:28:00;10.60;99.90
29413;DHT22;16389;50.126;8.450;2023-04-01T08:30:40;10.70;99.90
29413;DHT22;16389;50.126;8.450;2023-04-01T08:33:38;10.80;99.90
29413;DHT22;16389;50.126;8.450;2023-04-01T08:36:19;10.90;99.90
29413;DHT22;16389;50.126;8.450;2023-04-01T08:47:05;10.90;99.90
29413;DHT22;16389;50.126;8.450;2023-04-01T08:52:50;11.20;99.90
29413;DHT22;16389;50.126;8.450;2023-04-01T08:55:43;11.20;99.90
29413;DHT22;16389;50.126;8.450;2023-04-01T09:01:21;11.20;99.90
29413;DHT22;16389;50.126;8.450;2023-04-01T09:25:01;11.10;99.90
29413;DHT22;16389;50.126;8.450;2023-04-01T09:28:18;11.00;99.90
29413;DHT22;16389;50.126;8.450;2023-04-01T09:34:12;11.40;99.90
29413;DHT22;16389;50.126;8.450;2023-04-01T09:47:54;12.00;99.90
29413;DHT22;16389;50.126;8.450;2023-04-01T09:52:38;11.80;99.90
29413;DHT22;16389;50.126;8.450;2023-04-01T10:15:23;11.60;99.90
29413;DHT22;16389;50.126;8.450;2023-04-01T10:21:15;11.70;99.90
29413;DHT22;16389;50.126;8.450;2023-04-01T10:24:12;11.60;99.90
29413;DHT22;16389;50.126;8.450;2023-04-01T11:32:31;12.60;99.90
29413;DHT22;16389;50.126;8.450;2023-04-01T11:35:16;12.60;99.90
29413;DHT22;16389;50.126;8.450;2023-04-01T11:37:52;12.60;99.90
29413;DHT22;16389;50.126;8.450;2023-04-01T11:43:11;12.70;99.90
29413;DHT22;16389;50.126;8.450;2023-04-01T11:45:40;12.50;99.90
29413;DHT22;16389;50.126;8.450;2023-04-01T11:48:12;12.30;99.90
29413;DHT22;16389;50.126;8.450;2023-04-01T11:50:51;12.10;99.90
29413;DHT22;16389;50.126;8.450;2023-04-01T11:56:27;11.80;99.90
29413;DHT22;16389;50.126;8.450;2023-04-01T12:09:08;11.40;99.90
29413;DHT22;16389;50.126;8.450;2023-04-01T12:14:05;11.40;99.90
29413;DHT22;16389;50.126;8.450;2023-04-01T12:16:46;11.40;99.90
29413;DHT22;16389;50.126;8.450;2023-04-01T12:19:15;11.40;99.90
29413;DHT22;16389;50.126;8.450;2023-04-01T12:24:49;11.70;99.90
29413;DHT22;16389;50.126;8.450;2023-04-01T12:32:15;12.20;99.90
29413;DHT22;16389;50.126;8.450;2023-04-01T12:34:49;12.20;99.90
29413;DHT22;16389;50.126;8.450;2023-04-01T12:40:01;12.20;99.90
29413;DHT22;16389;50.126;8.450;2023-04-01T12:55:35;12.50;99.90
29413;DHT22;16389;50.126;8.450;2023-04-01T13:10:26;13.80;99.90
29413;DHT22;16389;50.126;8.450;2023-04-01T13:12:58;13.70;99.90
29413;DHT22;16389;50.126;8.450;2023-04-01T13:15:40;13.90;99.90
29413;DHT22;16389;50.126;8.450;2023-04-01T13:18:15;14.30;99.90
29413;DHT22;16389;50.126;8.450;2023-04-01T13:20:44;14.70;99.90
29413;DHT22;16389;50.126;8.450;2023-04-01T13:28:21;15.50;99.90
29413;DHT22;16389;50.126;8.450;2023-04-01T13:33:50;16.20;99.90
29413;DHT22;16389;50.126;8.450;2023-04-01T13:39:02;16.80;99.90
29413;DHT22;16389;50.126;8.450;2023-04-01T13:49:23;18.00;99.90
29413;DHT22;16389;50.126;8.450;2023-04-01T14:04:41;17.40;99.90
29413;DHT22;16389;50.126;8.450;2023-04-01T14:07:31;18.20;99.90
29413;DHT22;16389;50.126;8.450;2023-04-01T14:10:05;18.40;99.90
29413;DHT22;16389;50.126;8.450;2023-04-01T14:12:47;18.00;99.90
29413;DHT22;16389;50.126;8.450;2023-04-01T14:17:56;16.20;99.90
29413;DHT22;16389;50.126;8.450;2023-04-01T14:25:54;15.60;99.90
29413;DHT22;16389;50.126;8.450;2023-04-01T14:39:42;17.80;99.90
29413;DHT22;16389;50.126;8.450;2023-04-01T14:49:46;15.20;99.90
29413;DHT22;16389;50.126;8.450;2023-04-01T14:52:14;15.00;99.90
29413;DHT22;16389;50.126;8.450;2023-04-01T14:54:42;14.90;99.90
29413;DHT22;16389;50.126;8.450;2023-04-01T14:59:35;13.80;99.90
29413;DHT22;16389;50.126;8.450;2023-04-01T15:09:52;12.60;99.90
29413;DHT22;16389;50.126;8.450;2023-04-01T15:12:34;12.50;99.90
29413;DHT22;16389;50.126;8.450;2023-04-01T15:20:40;12.30;99.90
29413;DHT22;16389;50.126;8.450;2023-04-01T15:25:46;12.40;99.90
29413;DHT22;16389;50.126;8.450;2023-04-01T15:28:25;12.50;99.90
29413;DHT22;16389;50.126;8.450;2023-04-01T15:31:15;12.50;99.90
29413;DHT22;16389;50.126;8.450;2023-04-01T15:41:10;12.10;99.90
29413;DHT22;16389;50.126;8.450;2023-04-01T15:46:14;13.60;99.90
29413;DHT22;16389;50.126;8.450;2023-04-01T15:49:28;14.10;99.90
29413;DHT22;16389;50.126;8.450;2023-04-01T15:51:54;14.20;99.90
29413;DHT22;16389;50.126;8.450;2023-04-01T15:57:00;14.20;99.90
29413;DHT22;16389;50.126;8.450;2023-04-01T15:59:32;13.90;99.90
29413;DHT22;16389;50.126;8.450;2023-04-01T16:04:51;13.00;99.90
29413;DHT22;16389;50.126;8.450;2023-04-01T16:07:43;12.90;99.90
29413;DHT22;16389;50.126;8.450;2023-04-01T16:12:37;12.60;99.90
29413;DHT22;16389;50.126;8.450;2023-04-01T16:20:20;12.20;99.90
29413;DHT22;16389;50.126;8.450;2023-04-01T16:22:54;12.60;99.90
29413;DHT22;16389;50.126;8.450;2023-04-01T16:25:36;13.20;99.90
29413;DHT22;16389;50.126;8.450;2023-04-01T16:28:15;13.80;99.90
29413;DHT22;16389;50.126;8.450;2023-04-01T16:35:59;14.00;99.90
29413;DHT22;16389;50.126;8.450;2023-04-01T16:38:31;14.00;99.90
29413;DHT22;16389;50.126;8.450;2023-04-01T16:43:49;13.80;99.90
29413;DHT22;16389;50.126;8.450;2023-04-01T16:51:15;13.00;99.90
29413;DHT22;16389;50.126;8.450;2023-04-01T16:53:42;12.70;99.90
29413;DHT22;16389;50.126;8.450;2023-04-01T16:56:13;12.30;99.90
29413;DHT22;16389;50.126;8.450;2023-04-01T16:58:42;12.10;99.90
29413;DHT22;16389;50.126;8.450;2023-04-01T17:04:04;11.70;99.90
29413;DHT22;16389;50.126;8.450;2023-04-01T17:06:38;11.60;99.90
29413;DHT22;16389;50.126;8.450;2023-04-01T17:09:19;11.50;99.90
29413;DHT22;16389;50.126;8.450;2023-04-01T17:19:49;11.20;99.90
29413;DHT22;16389;50.126;8.450;2023-04-01T17:27:22;11.30;99.90
29413;DHT22;16389;50.126;8.450;2023-04-01T17:29:59;11.20;99.90
29413;DHT22;16389;50.126;8.450;2023-04-01T17:35:13;10.90;99.90
29413;DHT22;16389;50.126;8.450;2023-04-01T17:43:07;10.80;99.90
29413;DHT22;16389;50.126;8.450;2023-04-01T17:45:44;10.80;99.90
29413;DHT22;16389;50.126;8.450;2023-04-01T17:48:18;10.70;99.90
29413;DHT22;16389;50.126;8.450;2023-04-01T17:55:46;10.50;99.90
29413;DHT22;16389;50.126;8.450;2023-04-01T17:58:18;10.50;99.90
29413;DHT22;16389;50.126;8.450;2023-04-01T18:00:51;10.50;99.90
29413;DHT22;16389;50.126;8.450;2023-04-01T18:03:44;10.40;99.90
29413;DHT22;16389;50.126;8.450;2023-04-01T18:14:31;10.10;99.90
29413;DHT22;16389;50.126;8.450;2023-04-01T18:16:56;10.10;99.90
29413;DHT22;16389;50.126;8.450;2023-04-01T18:21:52;9.90;99.90
29413;DHT22;16389;50.126;8.450;2023-04-01T18:24:27;9.90;99.90
29413;DHT22;16389;50.126;8.450;2023-04-01T18:27:02;9.90;99.90
29413;DHT22;16389;50.126;8.450;2023-04-01T18:29:35;9.80;99.90
29413;DHT22;16389;50.126;8.450;2023-04-01T18:34:49;9.90;99.90
29413;DHT22;16389;50.126;8.450;2023-04-01T18:37:19;9.80;99.90
29413;DHT22;16389;50.126;8.450;2023-04-01T18:40:00;9.80;99.90
29413;DHT22;16389;50.126;8.450;2023-04-01T18:42:36;9.90;99.90
29413;DHT22;16389;50.126;8.450;2023-04-01T18:52:44;9.80;99.90
29413;DHT22;16389;50.126;8.450;2023-04-01T18:55:30;9.70;99.90
29413;DHT22;16389;50.126;8.450;2023-04-01T19:00:44;9.60;99.90
29413;DHT22;16389;50.126;8.450;2023-04-01T19:05:42;9.60;99.90
29413;DHT22;16389;50.126;8.450;2023-04-01T19:13:35;9.50;99.90
29413;DHT22;16389;50.126;8.450;2023-04-01T19:16:12;9.40;99.90
29413;DHT22;16389;50.126;8.450;2023-04-01T19:18:44;9.40;99.90
29413;DHT22;16389;50.126;8.450;2023-04-01T19:24:23;9.40;99.90
29413;DHT22;16389;50.126;8.450;2023-04-01T19:27:12;9.40;99.90
29413;DHT22;16389;50.126;8.450;2023-04-01T19:29:50;9.40;99.90
29413;DHT22;16389;50.126;8.450;2023-04-01T19:37:39;9.10;99.90
29413;DHT22;16389;50.126;8.450;2023-04-01T19:40:10;9.10;99.90
29413;DHT22;16389;50.126;8.450;2023-04-01T19:42:54;9.00;99.90
29413;DHT22;16389;50.126;8.450;2023-04-01T19:47:56;8.90;99.90
29413;DHT22;16389;50.126;8.450;2023-04-01T19:50:27;8.90;99.90
29413;DHT22;16389;50.126;8.450;2023-04-01T19:52:59;8.70;99.90
29413;DHT22;16389;50.126;8.450;2023-04-01T19:55:40;8.60;99.90
29413;DHT22;16389;50.126;8.450;2023-04-01T20:01:14;8.60;99.90
29413;DHT22;16389;50.126;8.450;2023-04-01T20:03:47;8.50;99.90
29413;DHT22;16389;50.126;8.450;2023-04-01T20:06:16;8.40;99.90
29413;DHT22;16389;50.126;8.450;2023-04-01T20:08:53;8.40;99.90
29413;DHT22;16389;50.126;8.450;2023-04-01T20:19:21;8.30;99.90
29413;DHT22;16389;50.126;8.450;2023-04-01T20:21:49;8.30;99.90
29413;DHT22;16389;50.126;8.450;2023-04-01T20:26:50;8.30;99.90
29413;DHT22;16389;50.126;8.450;2023-04-01T20:32:12;8.50;99.90
29413;DHT22;16389;50.126;8.450;2023-04-01T20:37:23;8.60;99.90
29413;DHT22;16389;50.126;8.450;2023-04-01T20:39:55;8.70;99.90
29413;DHT22;16389;50.126;8.450;2023-04-01T20:42:47;8.70;99.90
29413;DHT22;16389;50.126;8.450;2023-04-01T20:50:34;9.00;99.90
29413;DHT22;16389;50.126;8.450;2023-04-01T21:06:04;9.10;99.90
29413;DHT22;16389;50.126;8.450;2023-04-01T21:08:44;9.10;99.90
29413;DHT22;16389;50.126;8.450;2023-04-01T21:11:28;9.10;99.90
29413;DHT22;16389;50.126;8.450;2023-04-01T21:22:13;8.90;99.90
29413;DHT22;16389;50.126;8.450;2023-04-01T21:55:31;9.10;99.90
29413;DHT22;16389;50.126;8.450;2023-04-01T22:00:48;9.20;99.90
29413;DHT22;16389;50.126;8.450;2023-04-01T22:03:29;9.20;99.90
29413;DHT22;16389;50.126;8.450;2023-04-01T22:06:00;9.20;99.90
29413;DHT22;16389;50.126;8.450;2023-04-01T22:11:20;9.20;99.90
29413;DHT22;16389;50.126;8.450;2023-04-01T22:19:20;9.20;99.90
29413;DHT22;16389;50.126;8.450;2023-04-01T22:21:54;9.20;99.90
29413;DHT22;16389;50.126;8.450;2023-04-01T22:24:33;9.20;99.90
29413;DHT22;16389;50.126;8.450;2023-04-01T22:32:08;9.30;99.90
29413;DHT22;16389;50.126;8.450;2023-04-01T22:52:30;9.30;99.90
29413;DHT22;16389;50.126;8.450;2023-04-01T22:54:58;9.30;99.90
29413;DHT22;16389;50.126;8.450;2023-04-01T22:59:56;9.30;99.90
29413;DHT22;16389;50.126;8.450;2023-04-01T23:02:25;9.40;99.90
29413;DHT22;16389;50.126;8.450;2023-04-01T23:04:55;9.30;99.90
29413;DHT22;16389;50.126;8.450;2023-04-01T23:09:47;9.30;99.90
29413;DHT22;16389;50.126;8.450;2023-04-01T23:12:14;9.30;99.90
29413;DHT22;16389;50.126;8.450;2023-04-01T23:14:51;9.20;99.90
29413;DHT22;16389;50.126;8.450;2023-04-01T23:20:05;9.20;99.90
29413;DHT22;16389;50.126;8.450;2023-04-01T23:27:53;9.20;99.90
29413;DHT22;16389;50.126;8.450;2023-04-01T23:33:09;9.20;99.90
29413;DHT22;16389;50.126;8.450;2023-04-01T23:35:45;9.20;99.90
29413;DHT22;16389;50.126;8.450;2023-04-01T23:38:11;9.20;99.90
29413;DHT22;16389;50.126;8.450;2023-04-01T23:40:37;9.20;99.90
29413;DHT22;16389;50.126;8.450;2023-04-01T23:43:07;9.20;99.90
29413;DHT22;16389;50.126;8.450;2023-04-01T23:45:37;9.20;99.90
29413;DHT22;16389;50.126;8.450;2023-04-01T23:48:03;9.30;99.90
29413;DHT22;16389;50.126;8.450;2023-04-01T23:50:28;9.20;99.90
29413;DHT22;16389;50.126;8.450;2023-04-01T23:53:00;9.20;99.90
29413;DHT22;16389;50.126;8.450;2023-04-01T23:55:32;9.20;99.90
